sensor_id;sensor_type;location;lat;lon;timestamp;pressure;altitude;pressure_sealevel;temperature;humidity
26443;BME280;5563;52.296;6.806;2023-02-22T00:02:13;101557.91;;;7.44;93.36
26443;BME280;5563;52.296;6.806;2023-02-22T00:04:59;101533.19;;;7.28;93.26
26443;BME280;5563;52.296;6.806;2023-02-22T00:07:26;101548.59;;;7.37;93.54
26443;BME280;5563;52.296;6.806;2023-02-22T00:10:07;101529.78;;;7.26;93.39
26443;BME280;5563;52.296;6.806;2023-02-22T00:12:40;101521.72;;;7.27;93.62
26443;BME280;5563;52.296;6.806;2023-02-22T00:15:26;101527.03;;;7.27;93.58
26443;BME280;5563;52.296;6.806;2023-02-22T00:17:55;101513.25;;;7.21;93.55
26443;BME280;5563;52.296;6.806;2023-02-22T00:20:29;101544.75;;;7.42;93.55
26443;BME280;5563;52.296;6.806;2023-02-22T00:23:06;101517.28;;;7.28;93.37
26443;BME280;5563;52.296;6.806;2023-02-22T00:25:55;101539.53;;;7.41;93.33
26443;BME280;5563;52.296;6.806;2023-02-22T00:28:29;101517.28;;;7.28;93.47
26443;BME280;5563;52.296;6.806;2023-02-22T00:30:56;101504.44;;;7.20;93.45
26443;BME280;5563;52.296;6.806;2023-02-22T00:33:33;101519.69;;;7.32;93.59
26443;BME280;5563;52.296;6.806;2023-02-22T00:36:04;101499.09;;;7.22;93.49
26443;BME280;5563;52.296;6.806;2023-02-22T00:38:40;101495.81;;;7.17;93.42
26443;BME280;5563;52.296;6.806;2023-02-22T00:41:08;101504.44;;;7.20;93.66
26443;BME280;5563;52.296;6.806;2023-02-22T00:43:42;101512.06;;;7.26;93.43
26443;BME280;5563;52.296;6.806;2023-02-22T00:46:22;101517.88;;;7.33;93.69
26443;BME280;5563;52.296;6.806;2023-02-22T00:48:57;101494.78;;;7.19;93.71
26443;BME280;5563;52.296;6.806;2023-02-22T00:51:29;101509.31;;;7.28;93.58
26443;BME280;5563;52.296;6.806;2023-02-22T00:54:07;101483.22;;;7.20;93.37
26443;BME280;5563;52.296;6.806;2023-02-22T00:56:46;101510.59;;;7.36;93.53
26443;BME280;5563;52.296;6.806;2023-02-22T00:59:22;101487.53;;;7.23;93.39
26443;BME280;5563;52.296;6.806;2023-02-22T01:01:49;101485.81;;;7.22;93.29
26443;BME280;5563;52.296;6.806;2023-02-22T01:04:37;101471.44;;;7.10;93.26
26443;BME280;5563;52.296;6.806;2023-02-22T01:07:10;101481.63;;;7.18;93.22
26443;BME280;5563;52.296;6.806;2023-02-22T01:09:46;101485.06;;;7.20;93.51
26443;BME280;5563;52.296;6.806;2023-02-22T01:12:28;101476.41;;;7.16;93.39
26443;BME280;5563;52.296;6.806;2023-02-22T01:14:55;101461.16;;;7.04;93.65
26443;BME280;5563;52.296;6.806;2023-02-22T01:17:32;101470.59;;;7.10;93.63
26443;BME280;5563;52.296;6.806;2023-02-22T01:20:07;101462.13;;;7.03;93.54
26443;BME280;5563;52.296;6.806;2023-02-22T01:22:52;101473.22;;;7.10;93.52
26443;BME280;5563;52.296;6.806;2023-02-22T01:25:24;101469.81;;;7.08;93.59
26443;BME280;5563;52.296;6.806;2023-02-22T01:28:06;101463.91;;;7.03;93.40
26443;BME280;5563;52.296;6.806;2023-02-22T01:30:54;101474.19;;;7.09;93.53
26443;BME280;5563;52.296;6.806;2023-02-22T01:33:30;101481.97;;;7.12;93.62
26443;BME280;5563;52.296;6.806;2023-02-22T01:35:57;101491.13;;;7.22;93.50
26443;BME280;5563;52.296;6.806;2023-02-22T01:38:34;101499.91;;;7.22;93.45
26443;BME280;5563;52.296;6.806;2023-02-22T01:41:03;101466.47;;;7.04;93.42
26443;BME280;5563;52.296;6.806;2023-02-22T01:43:37;101454.44;;;6.99;93.25
26443;BME280;5563;52.296;6.806;2023-02-22T01:46:27;101462.22;;;7.02;93.20
26443;BME280;5563;52.296;6.806;2023-02-22T01:49:03;101486.75;;;7.21;93.38
26443;BME280;5563;52.296;6.806;2023-02-22T01:51:46;101455.28;;;6.99;93.03
26443;BME280;5563;52.296;6.806;2023-02-22T01:54:33;101444.84;;;6.96;93.27
26443;BME280;5563;52.296;6.806;2023-02-22T01:57:19;101489.41;;;7.21;93.15
26443;BME280;5563;52.296;6.806;2023-02-22T01:59:59;101450.06;;;6.98;92.79
26443;BME280;5563;52.296;6.806;2023-02-22T02:02:30;101467.09;;;7.09;92.58
26443;BME280;5563;52.296;6.806;2023-02-22T02:11:48;101475.56;;;7.16;92.07
26443;BME280;5563;52.296;6.806;2023-02-22T02:14:40;101430.91;;;6.93;92.10
26443;BME280;5563;52.296;6.806;2023-02-22T02:17:09;101443.56;;;7.03;91.95
26443;BME280;5563;52.296;6.806;2023-02-22T02:20:04;101470.16;;;7.17;91.91
26443;BME280;5563;52.296;6.806;2023-02-22T02:22:49;101445.25;;;7.04;91.93
26443;BME280;5563;52.296;6.806;2023-02-22T02:34:37;101442.63;;;7.04;91.69
26443;BME280;5563;52.296;6.806;2023-02-22T02:37:50;101410.81;;;6.89;91.49
26443;BME280;5563;52.296;6.806;2023-02-22T02:40:51;101444.84;;;7.12;91.31
26443;BME280;5563;52.296;6.806;2023-02-22T02:43:50;101444.06;;;7.10;91.23
26443;BME280;5563;52.296;6.806;2023-02-22T02:46:31;101435.34;;;7.08;90.91
26443;BME280;5563;52.296;6.806;2023-02-22T02:52:45;101395.34;;;6.81;90.70
26443;BME280;5563;52.296;6.806;2023-02-22T02:55:21;101397.94;;;6.83;90.41
26443;BME280;5563;52.296;6.806;2023-02-22T02:57:49;101415.97;;;6.92;90.55
26443;BME280;5563;52.296;6.806;2023-02-22T03:00:28;101393.56;;;6.82;90.66
26443;BME280;5563;52.296;6.806;2023-02-22T03:06:37;101387.66;;;6.77;90.00
26443;BME280;5563;52.296;6.806;2023-02-22T03:15:18;101398.19;;;6.78;89.84
26443;BME280;5563;52.296;6.806;2023-02-22T03:17:58;101368.19;;;6.62;89.59
26443;BME280;5563;52.296;6.806;2023-02-22T03:24:15;101375.34;;;6.60;89.72
26443;BME280;5563;52.296;6.806;2023-02-22T03:27:00;101365.13;;;6.54;90.05
26443;BME280;5563;52.296;6.806;2023-02-22T03:34:12;101392.19;;;6.75;90.19
26443;BME280;5563;52.296;6.806;2023-02-22T03:40:36;101389.63;;;6.73;90.25
26443;BME280;5563;52.296;6.806;2023-02-22T03:43:22;101346.03;;;6.47;90.07
26443;BME280;5563;52.296;6.806;2023-02-22T03:45:57;101362.47;;;6.54;89.97
26443;BME280;5563;52.296;6.806;2023-02-22T03:52:00;101348.09;;;6.42;89.61
26443;BME280;5563;52.296;6.806;2023-02-22T03:54:38;101353.31;;;6.44;89.67
26443;BME280;5563;52.296;6.806;2023-02-22T04:00:50;101351.34;;;6.32;90.21
26443;BME280;5563;52.296;6.806;2023-02-22T04:03:26;101340.25;;;6.25;90.16
26443;BME280;5563;52.296;6.806;2023-02-22T04:05:53;101357.59;;;6.31;90.31
26443;BME280;5563;52.296;6.806;2023-02-22T04:08:26;101337.84;;;6.21;90.28
26443;BME280;5563;52.296;6.806;2023-02-22T04:11:00;101348.09;;;6.27;90.32
26443;BME280;5563;52.296;6.806;2023-02-22T04:13:47;101359.66;;;6.26;90.55
26443;BME280;5563;52.296;6.806;2023-02-22T04:16:28;101326.41;;;6.05;90.75
26443;BME280;5563;52.296;6.806;2023-02-22T04:18:58;101339.56;;;6.06;90.77
26443;BME280;5563;52.296;6.806;2023-02-22T04:21:46;101331.94;;;6.00;90.88
26443;BME280;5563;52.296;6.806;2023-02-22T04:24:13;101340.38;;;6.07;90.80
26443;BME280;5563;52.296;6.806;2023-02-22T04:26:46;101319.00;;;5.94;90.78
26443;BME280;5563;52.296;6.806;2023-02-22T04:29:22;101321.06;;;5.89;91.03
26443;BME280;5563;52.296;6.806;2023-02-22T04:32:10;101328.09;;;5.90;91.06
26443;BME280;5563;52.296;6.806;2023-02-22T04:34:48;101327.47;;;5.85;91.03
26443;BME280;5563;52.296;6.806;2023-02-22T04:37:15;101331.91;;;5.85;91.20
26443;BME280;5563;52.296;6.806;2023-02-22T04:40:03;101342.16;;;5.91;91.48
26443;BME280;5563;52.296;6.806;2023-02-22T04:42:44;101335.25;;;5.88;91.39
26443;BME280;5563;52.296;6.806;2023-02-22T04:48:54;101333.47;;;5.89;91.68
26443;BME280;5563;52.296;6.806;2023-02-22T04:51:44;101333.28;;;5.92;91.67
26443;BME280;5563;52.296;6.806;2023-02-22T04:54:32;101332.50;;;5.90;91.48
26443;BME280;5563;52.296;6.806;2023-02-22T04:57:37;101358.09;;;6.06;91.86
26443;BME280;5563;52.296;6.806;2023-02-22T05:03:44;101326.44;;;5.88;91.84
26443;BME280;5563;52.296;6.806;2023-02-22T05:06:17;101309.06;;;5.82;91.92
26443;BME280;5563;52.296;6.806;2023-02-22T05:08:44;101306.31;;;5.85;91.72
26443;BME280;5563;52.296;6.806;2023-02-22T05:11:13;101323.38;;;5.95;91.95
26443;BME280;5563;52.296;6.806;2023-02-22T05:17:22;101294.78;;;5.86;91.75
26443;BME280;5563;52.296;6.806;2023-02-22T05:20:02;101315.38;;;5.97;92.04
26443;BME280;5563;52.296;6.806;2023-02-22T05:22:33;101303.56;;;5.87;91.97
26443;BME280;5563;52.296;6.806;2023-02-22T05:25:10;101314.59;;;5.95;91.93
26443;BME280;5563;52.296;6.806;2023-02-22T05:28:00;101312.72;;;5.97;91.96
26443;BME280;5563;52.296;6.806;2023-02-22T05:30:36;101320.34;;;6.03;92.16
26443;BME280;5563;52.296;6.806;2023-02-22T05:33:07;101298.03;;;5.91;91.99
26443;BME280;5563;52.296;6.806;2023-02-22T05:35:55;101308.09;;;6.00;92.15
26443;BME280;5563;52.296;6.806;2023-02-22T05:38:21;101287.25;;;5.94;92.00
26443;BME280;5563;52.296;6.806;2023-02-22T05:41:02;101290.84;;;5.93;91.93
26443;BME280;5563;52.296;6.806;2023-02-22T05:43:50;101310.44;;;6.06;91.91
26443;BME280;5563;52.296;6.806;2023-02-22T05:46:31;101285.56;;;5.93;91.88
26443;BME280;5563;52.296;6.806;2023-02-22T05:49:04;101286.25;;;5.97;92.10
26443;BME280;5563;52.296;6.806;2023-02-22T05:51:38;101294.69;;;6.03;92.07
26443;BME280;5563;52.296;6.806;2023-02-22T05:54:07;101268.06;;;5.91;92.15
26443;BME280;5563;52.296;6.806;2023-02-22T05:56:43;101310.75;;;6.16;92.25
26443;BME280;5563;52.296;6.806;2023-02-22T05:59:22;101288.22;;;6.09;92.07
26443;BME280;5563;52.296;6.806;2023-02-22T06:05:38;101270.47;;;5.95;92.07
26443;BME280;5563;52.296;6.806;2023-02-22T06:08:11;101269.59;;;5.95;92.17
26443;BME280;5563;52.296;6.806;2023-02-22T06:13:54;101268.59;;;5.97;92.35
26443;BME280;5563;52.296;6.806;2023-02-22T06:16:24;101268.41;;;6.00;92.65
26443;BME280;5563;52.296;6.806;2023-02-22T06:19:00;101266.84;;;5.96;92.58
26443;BME280;5563;52.296;6.806;2023-02-22T06:21:30;101271.22;;;5.97;92.46
26443;BME280;5563;52.296;6.806;2023-02-22T06:24:22;101266.09;;;5.94;92.48
26443;BME280;5563;52.296;6.806;2023-02-22T06:27:01;101257.22;;;5.95;92.71
26443;BME280;5563;52.296;6.806;2023-02-22T06:33:20;101283.38;;;6.17;92.73
26443;BME280;5563;52.296;6.806;2023-02-22T06:35:55;101284.16;;;6.19;92.64
26443;BME280;5563;52.296;6.806;2023-02-22T06:38:29;101256.72;;;6.04;92.72
26443;BME280;5563;52.296;6.806;2023-02-22T06:41:03;101272.00;;;6.15;93.10
26443;BME280;5563;52.296;6.806;2023-02-22T06:43:33;101246.22;;;6.03;92.70
26443;BME280;5563;52.296;6.806;2023-02-22T06:49:53;101289.84;;;6.27;92.78
26443;BME280;5563;52.296;6.806;2023-02-22T06:55:43;101287.19;;;6.27;92.98
26443;BME280;5563;52.296;6.806;2023-02-22T06:58:17;101268.59;;;6.13;93.15
26443;BME280;5563;52.296;6.806;2023-02-22T07:00:46;101300.53;;;6.25;92.91
26443;BME280;5563;52.296;6.806;2023-02-22T07:03:20;101284.88;;;6.21;92.97
26443;BME280;5563;52.296;6.806;2023-02-22T07:05:54;101284.28;;;6.16;93.18
26443;BME280;5563;52.296;6.806;2023-02-22T07:08:42;101267.31;;;6.04;93.51
26443;BME280;5563;52.296;6.806;2023-02-22T07:11:10;101263.72;;;6.05;93.27
26443;BME280;5563;52.296;6.806;2023-02-22T07:13:44;101294.56;;;6.22;93.29
26443;BME280;5563;52.296;6.806;2023-02-22T07:16:21;101251.84;;;5.97;93.61
26443;BME280;5563;52.296;6.806;2023-02-22T07:19:09;101248.25;;;5.98;93.48
26443;BME280;5563;52.296;6.806;2023-02-22T07:21:36;101253.38;;;6.01;93.38
26443;BME280;5563;52.296;6.806;2023-02-22T07:24:12;101259.38;;;6.04;93.62
26443;BME280;5563;52.296;6.806;2023-02-22T07:26:40;101246.22;;;6.03;93.65
26443;BME280;5563;52.296;6.806;2023-02-22T07:29:16;101263.38;;;6.11;93.79
26443;BME280;5563;52.296;6.806;2023-02-22T07:31:43;101271.66;;;6.21;93.78
26443;BME280;5563;52.296;6.806;2023-02-22T07:34:21;101260.91;;;6.08;93.64
26443;BME280;5563;52.296;6.806;2023-02-22T07:36:57;101235.78;;;6.00;93.89
26443;BME280;5563;52.296;6.806;2023-02-22T07:39:24;101283.19;;;6.20;93.85
26443;BME280;5563;52.296;6.806;2023-02-22T07:42:02;101240.31;;;5.98;93.75
26443;BME280;5563;52.296;6.806;2023-02-22T07:44:36;101248.19;;;5.99;93.74
26443;BME280;5563;52.296;6.806;2023-02-22T07:47:10;101244.91;;;5.94;94.02
26443;BME280;5563;52.296;6.806;2023-02-22T07:49:38;101262.94;;;6.03;93.94
26443;BME280;5563;52.296;6.806;2023-02-22T07:52:24;101279.09;;;6.14;93.96
26443;BME280;5563;52.296;6.806;2023-02-22T07:54:57;101263.72;;;6.05;94.11
26443;BME280;5563;52.296;6.806;2023-02-22T07:57:38;101249.19;;;5.97;94.09
26443;BME280;5563;52.296;6.806;2023-02-22T08:00:05;101268.91;;;6.07;94.17
26443;BME280;5563;52.296;6.806;2023-02-22T08:02:42;101254.25;;;6.01;94.11
26443;BME280;5563;52.296;6.806;2023-02-22T08:05:15;101251.34;;;6.06;94.13
26443;BME280;5563;52.296;6.806;2023-02-22T08:07:52;101253.91;;;6.07;94.19
26443;BME280;5563;52.296;6.806;2023-02-22T08:10:28;101242.63;;;6.04;94.16
26443;BME280;5563;52.296;6.806;2023-02-22T08:13:06;101240.75;;;6.06;94.51
26443;BME280;5563;52.296;6.806;2023-02-22T08:16:11;101279.44;;;6.24;94.42
26443;BME280;5563;52.296;6.806;2023-02-22T08:18:52;101255.34;;;6.13;94.44
26443;BME280;5563;52.296;6.806;2023-02-22T08:21:19;101238.97;;;6.06;94.38
26443;BME280;5563;52.296;6.806;2023-02-22T08:23:56;101233.59;;;6.08;94.48
26443;BME280;5563;52.296;6.806;2023-02-22T08:26:32;101221.28;;;6.07;94.33
26443;BME280;5563;52.296;6.806;2023-02-22T08:29:26;101237.16;;;6.22;94.37
26443;BME280;5563;52.296;6.806;2023-02-22T08:32:06;101217.59;;;6.09;94.41
26443;BME280;5563;52.296;6.806;2023-02-22T08:34:41;101245.34;;;6.33;94.53
26443;BME280;5563;52.296;6.806;2023-02-22T08:37:15;101217.34;;;6.14;94.59
26443;BME280;5563;52.296;6.806;2023-02-22T08:39:43;101235.53;;;6.20;94.24
26443;BME280;5563;52.296;6.806;2023-02-22T08:42:30;101227.78;;;6.17;94.28
26443;BME280;5563;52.296;6.806;2023-02-22T08:44:57;101249.63;;;6.36;94.31
26443;BME280;5563;52.296;6.806;2023-02-22T08:47:36;101208.56;;;6.13;94.45
26443;BME280;5563;52.296;6.806;2023-02-22T08:50:04;101219.56;;;6.21;94.34
26443;BME280;5563;52.296;6.806;2023-02-22T08:52:37;101252.75;;;6.42;94.17
26443;BME280;5563;52.296;6.806;2023-02-22T08:55:07;101240.22;;;6.30;94.25
26443;BME280;5563;52.296;6.806;2023-02-22T08:57:41;101246.97;;;6.36;94.22
26443;BME280;5563;52.296;6.806;2023-02-22T09:00:09;101216.81;;;6.23;94.32
26443;BME280;5563;52.296;6.806;2023-02-22T09:02:46;101257.72;;;6.48;94.40
26443;BME280;5563;52.296;6.806;2023-02-22T09:05:13;101269.91;;;6.51;94.36
26443;BME280;5563;52.296;6.806;2023-02-22T09:07:49;101239.88;;;6.36;93.93
26443;BME280;5563;52.296;6.806;2023-02-22T09:10:20;101262.63;;;6.54;94.07
26443;BME280;5563;52.296;6.806;2023-02-22T09:13:03;101251.06;;;6.41;93.80
26443;BME280;5563;52.296;6.806;2023-02-22T09:15:45;101265.28;;;6.54;93.76
26443;BME280;5563;52.296;6.806;2023-02-22T09:18:19;101228.44;;;6.36;93.56
26443;BME280;5563;52.296;6.806;2023-02-22T09:20:46;101250.88;;;6.44;93.56
26443;BME280;5563;52.296;6.806;2023-02-22T09:23:24;101259.50;;;6.48;93.77
26443;BME280;5563;52.296;6.806;2023-02-22T09:25:53;101259.94;;;6.56;93.79
26443;BME280;5563;52.296;6.806;2023-02-22T09:28:29;101241.81;;;6.48;93.65
26443;BME280;5563;52.296;6.806;2023-02-22T09:30:59;101222.13;;;6.38;93.68
26443;BME280;5563;52.296;6.806;2023-02-22T09:33:33;101231.22;;;6.48;93.64
26443;BME280;5563;52.296;6.806;2023-02-22T09:36:09;101230.47;;;6.46;93.38
26443;BME280;5563;52.296;6.806;2023-02-22T09:42:30;101232.00;;;6.50;93.16
26443;BME280;5563;52.296;6.806;2023-02-22T09:45:13;101218.31;;;6.42;93.13
26443;BME280;5563;52.296;6.806;2023-02-22T09:47:52;101251.34;;;6.67;93.52
26443;BME280;5563;52.296;6.806;2023-02-22T09:50:50;101201.13;;;6.49;93.59
26443;BME280;5563;52.296;6.806;2023-02-22T09:53:30;101208.38;;;6.62;93.51
26443;BME280;5563;52.296;6.806;2023-02-22T09:56:13;101206.47;;;6.64;93.11
26443;BME280;5563;52.296;6.806;2023-02-22T09:59:07;101223.94;;;6.82;92.92
26443;BME280;5563;52.296;6.806;2023-02-22T10:01:49;101208.00;;;6.68;93.17
26443;BME280;5563;52.296;6.806;2023-02-22T10:04:41;101183.69;;;6.61;93.03
26443;BME280;5563;52.296;6.806;2023-02-22T10:09:52;101182.84;;;6.75;92.97
26443;BME280;5563;52.296;6.806;2023-02-22T10:16:25;101219.91;;;7.04;92.57
26443;BME280;5563;52.296;6.806;2023-02-22T10:19:13;101192.38;;;6.93;92.69
26443;BME280;5563;52.296;6.806;2023-02-22T10:26:56;101219.88;;;7.34;91.74
26443;BME280;5563;52.296;6.806;2023-02-22T10:29:42;101209.38;;;7.32;91.24
26443;BME280;5563;52.296;6.806;2023-02-22T10:32:48;101191.34;;;7.37;90.69
26443;BME280;5563;52.296;6.806;2023-02-22T10:35:25;101196.56;;;7.53;90.95
26443;BME280;5563;52.296;6.806;2023-02-22T10:37:58;101189.81;;;7.61;90.34
26443;BME280;5563;52.296;6.806;2023-02-22T10:40:35;101179.09;;;7.63;89.11
26443;BME280;5563;52.296;6.806;2023-02-22T10:43:14;101172.44;;;7.70;88.56
26443;BME280;5563;52.296;6.806;2023-02-22T10:45:50;101208.63;;;7.99;88.33
26443;BME280;5563;52.296;6.806;2023-02-22T10:48:20;101172.34;;;7.86;87.33
26443;BME280;5563;52.296;6.806;2023-02-22T10:50:59;101177.91;;;7.95;87.55
26443;BME280;5563;52.296;6.806;2023-02-22T10:53:28;101197.34;;;8.22;87.00
26443;BME280;5563;52.296;6.806;2023-02-22T10:56:19;101162.88;;;8.08;87.02
26443;BME280;5563;52.296;6.806;2023-02-22T10:58:57;101169.06;;;8.21;86.88
26443;BME280;5563;52.296;6.806;2023-02-22T11:01:37;101158.38;;;8.23;86.16
26443;BME280;5563;52.296;6.806;2023-02-22T11:04:20;101169.06;;;8.35;84.92
26443;BME280;5563;52.296;6.806;2023-02-22T11:19:31;101133.66;;;8.99;82.09
26443;BME280;5563;52.296;6.806;2023-02-22T11:22:21;101171.31;;;9.31;82.57
26443;BME280;5563;52.296;6.806;2023-02-22T11:24:54;101168.81;;;9.40;82.50
26443;BME280;5563;52.296;6.806;2023-02-22T11:32:55;101133.31;;;9.65;80.91
26443;BME280;5563;52.296;6.806;2023-02-22T11:35:39;101134.47;;;9.73;80.74
26443;BME280;5563;52.296;6.806;2023-02-22T11:38:30;101135.91;;;9.90;80.69
26443;BME280;5563;52.296;6.806;2023-02-22T11:43:36;101136.31;;;10.20;79.79
26443;BME280;5563;52.296;6.806;2023-02-22T11:57:42;101096.56;;;10.41;78.40
26443;BME280;5563;52.296;6.806;2023-02-22T12:00:27;101127.28;;;10.68;78.23
26443;BME280;5563;52.296;6.806;2023-02-22T12:03:17;101098.81;;;10.69;77.76
26443;BME280;5563;52.296;6.806;2023-02-22T12:09:21;101079.09;;;10.94;76.18
26443;BME280;5563;52.296;6.806;2023-02-22T12:15:58;101089.28;;;11.33;75.03
26443;BME280;5563;52.296;6.806;2023-02-22T12:21:38;101074.13;;;11.22;74.06
26443;BME280;5563;52.296;6.806;2023-02-22T12:24:15;101074.97;;;11.23;73.67
26443;BME280;5563;52.296;6.806;2023-02-22T12:27:00;101072.06;;;11.15;74.79
26443;BME280;5563;52.296;6.806;2023-02-22T12:32:49;101072.06;;;11.15;73.93
26443;BME280;5563;52.296;6.806;2023-02-22T12:35:33;101050.44;;;11.18;73.47
26443;BME280;5563;52.296;6.806;2023-02-22T12:41:43;101060.25;;;11.50;71.42
26443;BME280;5563;52.296;6.806;2023-02-22T12:44:24;101047.88;;;11.49;72.05
26443;BME280;5563;52.296;6.806;2023-02-22T12:47:01;101056.44;;;11.64;73.04
26443;BME280;5563;52.296;6.806;2023-02-22T12:49:40;101082.16;;;11.87;72.37
26443;BME280;5563;52.296;6.806;2023-02-22T12:52:36;101063.06;;;11.91;72.27
26443;BME280;5563;52.296;6.806;2023-02-22T12:55:10;101085.72;;;12.08;72.37
26443;BME280;5563;52.296;6.806;2023-02-22T12:58:00;101092.84;;;12.19;72.24
26443;BME280;5563;52.296;6.806;2023-02-22T13:00:45;101089.06;;;12.21;69.92
26443;BME280;5563;52.296;6.806;2023-02-22T13:03:38;101064.59;;;12.05;71.77
26443;BME280;5563;52.296;6.806;2023-02-22T13:09:21;101091.66;;;12.43;71.17
26443;BME280;5563;52.296;6.806;2023-02-22T13:14:57;101062.94;;;12.45;70.38
26443;BME280;5563;52.296;6.806;2023-02-22T13:20:26;101093.22;;;12.66;68.54
26443;BME280;5563;52.296;6.806;2023-02-22T13:22:58;101093.09;;;12.68;67.42
26443;BME280;5563;52.296;6.806;2023-02-22T13:26:00;101060.25;;;12.45;67.47
26443;BME280;5563;52.296;6.806;2023-02-22T13:28:49;101070.63;;;12.39;67.29
26443;BME280;5563;52.296;6.806;2023-02-22T13:31:48;101087.97;;;12.44;67.83
26443;BME280;5563;52.296;6.806;2023-02-22T13:37:56;101075.84;;;12.40;69.35
26443;BME280;5563;52.296;6.806;2023-02-22T13:41:03;101082.78;;;12.43;69.12
26443;BME280;5563;52.296;6.806;2023-02-22T13:49:50;101044.22;;;12.04;69.42
26443;BME280;5563;52.296;6.806;2023-02-22T13:52:30;101041.53;;;12.04;69.66
26443;BME280;5563;52.296;6.806;2023-02-22T13:55:07;101061.63;;;12.19;69.54
26443;BME280;5563;52.296;6.806;2023-02-22T13:57:41;101046.22;;;12.12;70.41
26443;BME280;5563;52.296;6.806;2023-02-22T14:10:49;101006.25;;;11.89;70.01
26443;BME280;5563;52.296;6.806;2023-02-22T14:13:25;101010.59;;;11.90;70.30
26443;BME280;5563;52.296;6.806;2023-02-22T14:18:40;101046.47;;;12.09;71.44
26443;BME280;5563;52.296;6.806;2023-02-22T14:21:19;101006.13;;;11.91;71.21
26443;BME280;5563;52.296;6.806;2023-02-22T14:23:55;101034.84;;;12.10;69.33
26443;BME280;5563;52.296;6.806;2023-02-22T14:26:38;101041.28;;;12.07;70.03
26443;BME280;5563;52.296;6.806;2023-02-22T14:34:11;101006.50;;;11.86;70.06
26443;BME280;5563;52.296;6.806;2023-02-22T14:37:02;101015.56;;;11.95;70.03
26443;BME280;5563;52.296;6.806;2023-02-22T14:39:41;101014.00;;;11.92;70.78
26443;BME280;5563;52.296;6.806;2023-02-22T14:42:32;101008.78;;;11.91;69.98
26443;BME280;5563;52.296;6.806;2023-02-22T14:47:44;100998.69;;;11.94;70.72
26443;BME280;5563;52.296;6.806;2023-02-22T14:50:21;101040.22;;;12.19;69.61
26443;BME280;5563;52.296;6.806;2023-02-22T14:53:20;101041.81;;;12.22;70.30
26443;BME280;5563;52.296;6.806;2023-02-22T14:55:55;101027.50;;;12.12;70.31
26443;BME280;5563;52.296;6.806;2023-02-22T15:01:32;101012.31;;;11.91;68.55
26443;BME280;5563;52.296;6.806;2023-02-22T15:04:21;101034.94;;;12.08;69.05
26443;BME280;5563;52.296;6.806;2023-02-22T15:06:59;101051.81;;;12.09;68.62
26443;BME280;5563;52.296;6.806;2023-02-22T15:09:33;101015.63;;;11.84;69.13
26443;BME280;5563;52.296;6.806;2023-02-22T15:14:39;101035.00;;;11.97;69.51
26443;BME280;5563;52.296;6.806;2023-02-22T15:17:22;101016.34;;;11.86;70.01
26443;BME280;5563;52.296;6.806;2023-02-22T15:19:56;101026.31;;;11.84;68.85
26443;BME280;5563;52.296;6.806;2023-02-22T15:22:28;101047.88;;;11.92;68.36
26443;BME280;5563;52.296;6.806;2023-02-22T15:25:07;101033.34;;;11.85;68.25
26443;BME280;5563;52.296;6.806;2023-02-22T15:27:44;101037.25;;;11.81;68.07
26443;BME280;5563;52.296;6.806;2023-02-22T15:30:23;101026.34;;;11.73;68.83
26443;BME280;5563;52.296;6.806;2023-02-22T15:33:14;101035.06;;;11.75;69.61
26443;BME280;5563;52.296;6.806;2023-02-22T15:35:51;101048.41;;;11.86;69.86
26443;BME280;5563;52.296;6.806;2023-02-22T15:38:28;101053.47;;;11.89;69.61
26443;BME280;5563;52.296;6.806;2023-02-22T15:41:03;101050.81;;;11.89;70.53
26443;BME280;5563;52.296;6.806;2023-02-22T15:43:38;101029.38;;;11.79;69.61
26443;BME280;5563;52.296;6.806;2023-02-22T15:46:09;101042.34;;;11.84;69.50
26443;BME280;5563;52.296;6.806;2023-02-22T15:48:42;101034.81;;;11.78;69.38
26443;BME280;5563;52.296;6.806;2023-02-22T15:51:16;101031.09;;;11.69;69.93
26443;BME280;5563;52.296;6.806;2023-02-22T15:53:46;101016.91;;;11.58;70.16
26443;BME280;5563;52.296;6.806;2023-02-22T15:56:28;101049.28;;;11.75;69.87
26443;BME280;5563;52.296;6.806;2023-02-22T15:59:14;101008.53;;;11.51;70.56
26443;BME280;5563;52.296;6.806;2023-02-22T16:01:45;101048.94;;;11.69;69.98
26443;BME280;5563;52.296;6.806;2023-02-22T16:04:23;101013.25;;;11.48;70.92
26443;BME280;5563;52.296;6.806;2023-02-22T16:07:10;101015.25;;;11.46;71.30
26443;BME280;5563;52.296;6.806;2023-02-22T16:09:49;101016.59;;;11.40;71.09
26443;BME280;5563;52.296;6.806;2023-02-22T16:14:52;101030.63;;;11.42;70.95
26443;BME280;5563;52.296;6.806;2023-02-22T16:17:36;101026.41;;;11.29;70.90
26443;BME280;5563;52.296;6.806;2023-02-22T16:20:29;101021.59;;;11.23;70.89
26443;BME280;5563;52.296;6.806;2023-02-22T16:22:56;101024.63;;;11.18;71.41
26443;BME280;5563;52.296;6.806;2023-02-22T16:25:32;101042.09;;;11.22;71.37
26443;BME280;5563;52.296;6.806;2023-02-22T16:28:21;101061.84;;;11.31;71.78
26443;BME280;5563;52.296;6.806;2023-02-22T16:30:57;101055.06;;;11.27;71.44
26443;BME280;5563;52.296;6.806;2023-02-22T16:33:32;101028.16;;;11.08;71.56
26443;BME280;5563;52.296;6.806;2023-02-22T16:36:09;101032.16;;;11.02;72.08
26443;BME280;5563;52.296;6.806;2023-02-22T16:38:36;101035.53;;;10.93;72.70
26443;BME280;5563;52.296;6.806;2023-02-22T16:41:15;101068.16;;;11.08;72.83
26443;BME280;5563;52.296;6.806;2023-02-22T16:43:52;101070.09;;;11.06;72.79
26443;BME280;5563;52.296;6.806;2023-02-22T16:46:28;101034.84;;;10.80;73.07
26443;BME280;5563;52.296;6.806;2023-02-22T16:48:56;101031.44;;;10.78;73.23
26443;BME280;5563;52.296;6.806;2023-02-22T16:51:52;101031.78;;;10.73;73.31
26443;BME280;5563;52.296;6.806;2023-02-22T17:05:04;101042.91;;;10.56;73.45
26443;BME280;5563;52.296;6.806;2023-02-22T17:07:45;101085.00;;;10.75;73.60
26443;BME280;5563;52.296;6.806;2023-02-22T17:10:21;101042.66;;;10.48;73.63
26443;BME280;5563;52.296;6.806;2023-02-22T17:12:50;101055.75;;;10.51;74.15
26443;BME280;5563;52.296;6.806;2023-02-22T17:22:28;101073.19;;;10.44;74.33
26443;BME280;5563;52.296;6.806;2023-02-22T17:24:57;101063.00;;;10.38;74.55
26443;BME280;5563;52.296;6.806;2023-02-22T17:27:32;101059.72;;;10.35;74.64
26443;BME280;5563;52.296;6.806;2023-02-22T17:30:02;101066.03;;;10.34;74.68
26443;BME280;5563;52.296;6.806;2023-02-22T17:32:39;101062.50;;;10.33;74.84